sensor_id;sensor_type;location;lat;lon;timestamp;pressure;altitude;pressure_sealevel;temperature;humidity
20037;BME280;10179;42.640;23.312;2023-11-21T00:00:09;93479.44;;;10.31;48.36
20037;BME280;10179;42.640;23.312;2023-11-21T00:02:37;93505.84;;;10.47;48.84
20037;BME280;10179;42.640;23.312;2023-11-21T00:05:06;93522.03;;;10.44;48.94
20037;BME280;10179;42.640;23.312;2023-11-21T00:07:33;93466.41;;;10.12;49.28
20037;BME280;10179;42.640;23.312;2023-11-21T00:09:58;93444.81;;;9.98;49.45
20037;BME280;10179;42.640;23.312;2023-11-21T00:12:24;93392.75;;;9.60;49.78
20037;BME280;10179;42.640;23.312;2023-11-21T00:14:50;93499.06;;;10.28;49.92
20037;BME280;10179;42.640;23.312;2023-11-21T00:17:15;93496.69;;;10.26;49.88
20037;BME280;10179;42.640;23.312;2023-11-21T00:19:40;93535.06;;;10.39;50.09
20037;BME280;10179;42.640;23.312;2023-11-21T00:22:08;93509.81;;;10.38;49.90
20037;BME280;10179;42.640;23.312;2023-11-21T00:24:34;93518.03;;;10.42;50.11
20037;BME280;10179;42.640;23.312;2023-11-21T00:27:00;93500.81;;;10.46;49.95
20037;BME280;10179;42.640;23.312;2023-11-21T00:29:25;93477.50;;;10.26;49.95
20037;BME280;10179;42.640;23.312;2023-11-21T00:31:52;93490.97;;;10.30;49.97
20037;BME280;10179;42.640;23.312;2023-11-21T00:34:17;93396.50;;;9.64;50.23
20037;BME280;10179;42.640;23.312;2023-11-21T00:36:43;93487.63;;;10.22;50.52
20037;BME280;10179;42.640;23.312;2023-11-21T00:39:08;93501.31;;;10.24;50.54
20037;BME280;10179;42.640;23.312;2023-11-21T00:41:34;93389.41;;;9.53;50.65
20037;BME280;10179;42.640;23.312;2023-11-21T00:44:00;93488.06;;;10.19;50.74
20037;BME280;10179;42.640;23.312;2023-11-21T00:46:26;93506.66;;;10.18;50.85
20037;BME280;10179;42.640;23.312;2023-11-21T00:48:53;93408.81;;;9.52;50.80
20037;BME280;10179;42.640;23.312;2023-11-21T00:51:19;93506.31;;;10.14;50.96
20037;BME280;10179;42.640;23.312;2023-11-21T00:53:45;93504.28;;;10.16;51.01
20037;BME280;10179;42.640;23.312;2023-11-21T00:56:10;93121.28;;;7.68;50.85
20037;BME280;10179;42.640;23.312;2023-11-21T00:58:35;93497.44;;;10.15;50.84
20037;BME280;10179;42.640;23.312;2023-11-21T01:01:01;93458.03;;;9.92;50.99
20037;BME280;10179;42.640;23.312;2023-11-21T01:03:26;93459.06;;;9.91;50.86
20037;BME280;10179;42.640;23.312;2023-11-21T01:05:51;93492.03;;;10.10;50.91
20037;BME280;10179;42.640;23.312;2023-11-21T01:08:17;93495.94;;;10.08;50.90
20037;BME280;10179;42.640;23.312;2023-11-21T01:10:42;93488.97;;;10.13;50.92
20037;BME280;10179;42.640;23.312;2023-11-21T01:13:08;93474.81;;;10.14;50.67
20037;BME280;10179;42.640;23.312;2023-11-21T01:15:34;93439.31;;;9.88;50.52
20037;BME280;10179;42.640;23.312;2023-11-21T01:17:59;93490.22;;;10.11;50.70
20037;BME280;10179;42.640;23.312;2023-11-21T01:20:25;93498.69;;;10.13;50.76
20037;BME280;10179;42.640;23.312;2023-11-21T01:22:50;93499.13;;;10.10;50.48
20037;BME280;10179;42.640;23.312;2023-11-21T01:25:16;93496.38;;;10.04;50.59
20037;BME280;10179;42.640;23.312;2023-11-21T01:27:43;93390.50;;;9.33;50.68
20037;BME280;10179;42.640;23.312;2023-11-21T01:30:09;93483.56;;;9.85;50.42
20037;BME280;10179;42.640;23.312;2023-11-21T01:32:37;93410.56;;;9.40;50.55
20037;BME280;10179;42.640;23.312;2023-11-21T01:35:04;93460.91;;;9.60;50.67
20037;BME280;10179;42.640;23.312;2023-11-21T01:37:31;93481.38;;;9.82;50.73
20037;BME280;10179;42.640;23.312;2023-11-21T01:39:56;93461.06;;;9.65;50.91
20037;BME280;10179;42.640;23.312;2023-11-21T01:42:22;93484.22;;;9.80;51.09
20037;BME280;10179;42.640;23.312;2023-11-21T01:44:48;93488.69;;;9.79;51.05
20037;BME280;10179;42.640;23.312;2023-11-21T01:47:14;93477.66;;;9.59;51.12
20037;BME280;10179;42.640;23.312;2023-11-21T01:49:43;93439.09;;;9.48;51.26
20037;BME280;10179;42.640;23.312;2023-11-21T01:52:10;93482.22;;;9.94;51.42
20037;BME280;10179;42.640;23.312;2023-11-21T01:54:37;93471.38;;;10.02;50.77
20037;BME280;10179;42.640;23.312;2023-11-21T01:57:03;93468.66;;;9.97;50.68
20037;BME280;10179;42.640;23.312;2023-11-21T01:59:38;93477.69;;;10.13;50.54
20037;BME280;10179;42.640;23.312;2023-11-21T02:02:07;93429.13;;;9.68;50.15
20037;BME280;10179;42.640;23.312;2023-11-21T02:04:34;93478.72;;;10.12;50.23
20037;BME280;10179;42.640;23.312;2023-11-21T02:07:00;93473.69;;;10.10;50.25
20037;BME280;10179;42.640;23.312;2023-11-21T02:09:27;93484.75;;;10.12;50.08
20037;BME280;10179;42.640;23.312;2023-11-21T02:11:54;93460.19;;;9.95;50.14
20037;BME280;10179;42.640;23.312;2023-11-21T02:14:20;93441.47;;;9.79;49.93
20037;BME280;10179;42.640;23.312;2023-11-21T02:16:50;93431.53;;;9.70;50.01
20037;BME280;10179;42.640;23.312;2023-11-21T02:19:20;93482.47;;;10.04;49.96
20037;BME280;10179;42.640;23.312;2023-11-21T02:21:49;93476.28;;;9.98;49.90
20037;BME280;10179;42.640;23.312;2023-11-21T02:24:15;93477.97;;;9.93;49.90
20037;BME280;10179;42.640;23.312;2023-11-21T02:26:42;93347.81;;;9.03;49.65
20037;BME280;10179;42.640;23.312;2023-11-21T02:29:08;93424.56;;;9.33;49.51
20037;BME280;10179;42.640;23.312;2023-11-21T02:31:37;93453.53;;;9.39;50.00
20037;BME280;10179;42.640;23.312;2023-11-21T02:34:11;93375.31;;;8.94;50.23
20037;BME280;10179;42.640;23.312;2023-11-21T02:36:38;93400.47;;;8.95;50.40
20037;BME280;10179;42.640;23.312;2023-11-21T02:39:04;93263.16;;;8.12;50.34
20037;BME280;10179;42.640;23.312;2023-11-21T02:41:29;93397.06;;;8.94;50.60
20037;BME280;10179;42.640;23.312;2023-11-21T02:43:55;93384.72;;;8.83;50.60
20037;BME280;10179;42.640;23.312;2023-11-21T02:46:20;93480.22;;;9.47;50.70
20037;BME280;10179;42.640;23.312;2023-11-21T02:48:46;93428.38;;;9.19;50.74
20037;BME280;10179;42.640;23.312;2023-11-21T02:51:11;93477.84;;;9.46;50.65
20037;BME280;10179;42.640;23.312;2023-11-21T02:53:36;93472.00;;;9.44;50.65
20037;BME280;10179;42.640;23.312;2023-11-21T02:56:04;93457.91;;;9.26;50.71
20037;BME280;10179;42.640;23.312;2023-11-21T02:58:29;93404.28;;;8.99;50.67
20037;BME280;10179;42.640;23.312;2023-11-21T03:00:55;93455.09;;;9.28;50.98
20037;BME280;10179;42.640;23.312;2023-11-21T03:03:21;93397.84;;;8.95;50.81
20037;BME280;10179;42.640;23.312;2023-11-21T03:05:49;93469.69;;;9.36;50.98
20037;BME280;10179;42.640;23.312;2023-11-21T03:08:14;93443.09;;;9.20;51.14
20037;BME280;10179;42.640;23.312;2023-11-21T03:10:39;93459.81;;;9.38;51.28
20037;BME280;10179;42.640;23.312;2023-11-21T03:13:05;93469.84;;;9.41;51.56
20037;BME280;10179;42.640;23.312;2023-11-21T03:15:30;93430.47;;;9.29;51.43
20037;BME280;10179;42.640;23.312;2023-11-21T03:17:57;93471.81;;;9.45;51.44
20037;BME280;10179;42.640;23.312;2023-11-21T03:20:23;93463.00;;;9.40;51.14
20037;BME280;10179;42.640;23.312;2023-11-21T03:22:48;93433.41;;;9.21;50.99
20037;BME280;10179;42.640;23.312;2023-11-21T03:25:15;93400.78;;;8.87;51.07
20037;BME280;10179;42.640;23.312;2023-11-21T03:27:42;93359.84;;;8.37;50.91
20037;BME280;10179;42.640;23.312;2023-11-21T03:30:09;93482.69;;;9.30;51.36
20037;BME280;10179;42.640;23.312;2023-11-21T03:32:34;93449.53;;;9.06;51.22
20037;BME280;10179;42.640;23.312;2023-11-21T03:35:00;93422.63;;;8.99;51.42
20037;BME280;10179;42.640;23.312;2023-11-21T03:37:27;93369.81;;;8.65;51.17
20037;BME280;10179;42.640;23.312;2023-11-21T03:39:52;93456.84;;;9.16;51.28
20037;BME280;10179;42.640;23.312;2023-11-21T03:42:18;93438.00;;;9.07;51.21
20037;BME280;10179;42.640;23.312;2023-11-21T03:44:44;93483.41;;;9.38;51.29
20037;BME280;10179;42.640;23.312;2023-11-21T03:47:10;93465.47;;;9.35;50.98
20037;BME280;10179;42.640;23.312;2023-11-21T03:49:35;93465.22;;;9.24;51.11
20037;BME280;10179;42.640;23.312;2023-11-21T03:52:00;93309.19;;;8.13;52.16
20037;BME280;10179;42.640;23.312;2023-11-21T03:54:26;93463.53;;;9.12;52.51
20037;BME280;10179;42.640;23.312;2023-11-21T03:56:51;93342.56;;;8.36;52.70
20037;BME280;10179;42.640;23.312;2023-11-21T03:59:17;93467.63;;;9.07;52.85
20037;BME280;10179;42.640;23.312;2023-11-21T04:01:42;93327.97;;;8.28;52.85
20037;BME280;10179;42.640;23.312;2023-11-21T04:04:08;93378.47;;;8.66;53.10
20037;BME280;10179;42.640;23.312;2023-11-21T04:06:33;93365.03;;;8.62;53.01
20037;BME280;10179;42.640;23.312;2023-11-21T04:08:58;93440.34;;;8.97;52.92
20037;BME280;10179;42.640;23.312;2023-11-21T04:11:24;93356.16;;;8.63;53.15
20037;BME280;10179;42.640;23.312;2023-11-21T04:13:49;93448.81;;;9.29;53.17
20037;BME280;10179;42.640;23.312;2023-11-21T04:16:15;93443.13;;;9.32;52.92
20037;BME280;10179;42.640;23.312;2023-11-21T04:18:40;93451.34;;;9.36;52.91
20037;BME280;10179;42.640;23.312;2023-11-21T04:21:06;93426.03;;;9.29;52.46
20037;BME280;10179;42.640;23.312;2023-11-21T04:23:31;93402.22;;;9.01;52.64
20037;BME280;10179;42.640;23.312;2023-11-21T04:25:57;93410.03;;;9.19;52.68
20037;BME280;10179;42.640;23.312;2023-11-21T04:28:23;93403.78;;;9.20;52.51
20037;BME280;10179;42.640;23.312;2023-11-21T04:30:49;93443.88;;;9.51;52.27
20037;BME280;10179;42.640;23.312;2023-11-21T04:33:15;93433.16;;;9.41;52.39
20037;BME280;10179;42.640;23.312;2023-11-21T04:35:41;93438.63;;;9.51;52.26
20037;BME280;10179;42.640;23.312;2023-11-21T04:38:06;93423.38;;;9.48;52.02
20037;BME280;10179;42.640;23.312;2023-11-21T04:40:32;93286.47;;;8.50;51.93
20037;BME280;10179;42.640;23.312;2023-11-21T04:42:57;93366.09;;;9.21;51.76
20037;BME280;10179;42.640;23.312;2023-11-21T04:45:23;93443.75;;;9.76;51.82
20037;BME280;10179;42.640;23.312;2023-11-21T04:47:48;93445.91;;;9.79;51.72
20037;BME280;10179;42.640;23.312;2023-11-21T04:50:14;93375.94;;;9.38;51.71
20037;BME280;10179;42.640;23.312;2023-11-21T04:52:39;93391.78;;;9.43;51.35
20037;BME280;10179;42.640;23.312;2023-11-21T04:55:05;93442.72;;;9.77;51.20
20037;BME280;10179;42.640;23.312;2023-11-21T04:57:31;93328.53;;;8.97;50.74
20037;BME280;10179;42.640;23.312;2023-11-21T04:59:57;93458.09;;;9.73;50.83
20037;BME280;10179;42.640;23.312;2023-11-21T05:02:22;93451.91;;;9.68;50.64
20037;BME280;10179;42.640;23.312;2023-11-21T05:04:47;93456.25;;;9.62;50.98
20037;BME280;10179;42.640;23.312;2023-11-21T05:07:13;93484.94;;;9.57;50.90
20037;BME280;10179;42.640;23.312;2023-11-21T05:09:44;93472.28;;;9.54;51.05
20037;BME280;10179;42.640;23.312;2023-11-21T05:12:11;93441.66;;;9.36;51.21
20037;BME280;10179;42.640;23.312;2023-11-21T05:14:37;93433.78;;;9.24;51.47
20037;BME280;10179;42.640;23.312;2023-11-21T05:17:03;93422.22;;;9.14;51.49
20037;BME280;10179;42.640;23.312;2023-11-21T05:19:29;93402.38;;;9.06;52.12
20037;BME280;10179;42.640;23.312;2023-11-21T05:21:55;93412.69;;;9.01;52.03
20037;BME280;10179;42.640;23.312;2023-11-21T05:24:20;93247.47;;;7.94;52.00
20037;BME280;10179;42.640;23.312;2023-11-21T05:26:45;93296.69;;;8.33;52.30
20037;BME280;10179;42.640;23.312;2023-11-21T05:29:11;93219.50;;;7.94;52.53
20037;BME280;10179;42.640;23.312;2023-11-21T05:31:36;93355.13;;;8.82;52.20
20037;BME280;10179;42.640;23.312;2023-11-21T05:34:03;93447.84;;;9.42;52.23
20037;BME280;10179;42.640;23.312;2023-11-21T05:36:30;93462.56;;;9.43;52.07
20037;BME280;10179;42.640;23.312;2023-11-21T05:38:55;93439.28;;;9.35;52.21
20037;BME280;10179;42.640;23.312;2023-11-21T05:41:21;93348.22;;;8.70;52.34
20037;BME280;10179;42.640;23.312;2023-11-21T05:43:46;93425.56;;;9.21;52.47
20037;BME280;10179;42.640;23.312;2023-11-21T05:46:12;93466.75;;;9.44;52.28
20037;BME280;10179;42.640;23.312;2023-11-21T05:48:38;93435.00;;;9.22;52.24
20037;BME280;10179;42.640;23.312;2023-11-21T05:51:05;93435.78;;;9.22;52.32
20037;BME280;10179;42.640;23.312;2023-11-21T05:53:31;93462.56;;;9.43;52.25
20037;BME280;10179;42.640;23.312;2023-11-21T05:55:57;93432.97;;;9.24;52.31
20037;BME280;10179;42.640;23.312;2023-11-21T05:58:22;93436.66;;;9.35;52.31
20037;BME280;10179;42.640;23.312;2023-11-21T06:00:48;93449.00;;;9.46;52.44
20037;BME280;10179;42.640;23.312;2023-11-21T06:03:13;93323.59;;;8.59;52.39
20037;BME280;10179;42.640;23.312;2023-11-21T06:05:39;93465.31;;;9.48;52.44
20037;BME280;10179;42.640;23.312;2023-11-21T06:08:04;93352.25;;;8.84;52.13
20037;BME280;10179;42.640;23.312;2023-11-21T06:10:29;93485.94;;;9.44;52.25
20037;BME280;10179;42.640;23.312;2023-11-21T06:12:55;93465.31;;;9.48;52.71
20037;BME280;10179;42.640;23.312;2023-11-21T06:15:20;93469.22;;;9.57;52.79
20037;BME280;10179;42.640;23.312;2023-11-21T06:17:47;93469.91;;;9.64;52.41
20037;BME280;10179;42.640;23.312;2023-11-21T06:20:17;93473.84;;;9.73;52.32
20037;BME280;10179;42.640;23.312;2023-11-21T06:22:47;93472.03;;;9.86;52.37
20037;BME280;10179;42.640;23.312;2023-11-21T06:25:13;93453.13;;;9.84;52.02
20037;BME280;10179;42.640;23.312;2023-11-21T06:27:41;93366.91;;;9.33;51.58
20037;BME280;10179;42.640;23.312;2023-11-21T06:30:07;93468.88;;;10.07;51.57
20037;BME280;10179;42.640;23.312;2023-11-21T06:32:35;93406.44;;;9.62;51.13
20037;BME280;10179;42.640;23.312;2023-11-21T06:35:01;93474.13;;;10.07;51.20
20037;BME280;10179;42.640;23.312;2023-11-21T06:37:27;93485.78;;;10.11;51.32
20037;BME280;10179;42.640;23.312;2023-11-21T06:39:53;93488.53;;;10.16;51.32
20037;BME280;10179;42.640;23.312;2023-11-21T06:42:19;93491.75;;;10.18;51.14
20037;BME280;10179;42.640;23.312;2023-11-21T06:44:45;93494.38;;;10.18;51.05
20037;BME280;10179;42.640;23.312;2023-11-21T06:47:11;93460.66;;;9.92;51.09
20037;BME280;10179;42.640;23.312;2023-11-21T06:49:36;93505.69;;;10.31;51.39
20037;BME280;10179;42.640;23.312;2023-11-21T06:52:04;93492.13;;;10.45;51.68
20037;BME280;10179;42.640;23.312;2023-11-21T06:54:31;93504.34;;;10.63;51.34
20037;BME280;10179;42.640;23.312;2023-11-21T06:56:56;93442.56;;;10.49;50.74
20037;BME280;10179;42.640;23.312;2023-11-21T06:59:22;93481.38;;;10.94;50.32
20037;BME280;10179;42.640;23.312;2023-11-21T07:01:49;93487.63;;;11.16;49.59
20037;BME280;10179;42.640;23.312;2023-11-21T07:04:14;93474.97;;;11.13;48.67
20037;BME280;10179;42.640;23.312;2023-11-21T07:06:40;93496.47;;;11.39;48.49
20037;BME280;10179;42.640;23.312;2023-11-21T07:09:06;93463.47;;;11.31;48.50
20037;BME280;10179;42.640;23.312;2023-11-21T07:11:34;93429.31;;;11.19;48.04
20037;BME280;10179;42.640;23.312;2023-11-21T07:13:59;93488.94;;;11.71;47.75
20037;BME280;10179;42.640;23.312;2023-11-21T07:16:25;93484.91;;;11.80;47.37
20037;BME280;10179;42.640;23.312;2023-11-21T07:18:51;93393.75;;;11.29;46.79
20037;BME280;10179;42.640;23.312;2023-11-21T07:21:17;93484.66;;;11.82;46.67
20037;BME280;10179;42.640;23.312;2023-11-21T07:23:42;93404.44;;;11.10;47.02
20037;BME280;10179;42.640;23.312;2023-11-21T07:26:08;93487.66;;;11.74;46.52
20037;BME280;10179;42.640;23.312;2023-11-21T07:28:35;93431.13;;;11.31;46.72
20037;BME280;10179;42.640;23.312;2023-11-21T07:31:01;93484.38;;;11.66;46.82
20037;BME280;10179;42.640;23.312;2023-11-21T07:33:26;93429.97;;;11.27;47.05
20037;BME280;10179;42.640;23.312;2023-11-21T07:35:52;93488.06;;;11.65;47.06
20037;BME280;10179;42.640;23.312;2023-11-21T07:38:17;93491.81;;;11.69;47.12
20037;BME280;10179;42.640;23.312;2023-11-21T07:40:43;93425.75;;;11.37;46.89
20037;BME280;10179;42.640;23.312;2023-11-21T07:43:08;93414.47;;;11.25;47.27
20037;BME280;10179;42.640;23.312;2023-11-21T07:45:34;93491.19;;;11.79;47.27
20037;BME280;10179;42.640;23.312;2023-11-21T07:47:59;93477.16;;;11.74;46.77
20037;BME280;10179;42.640;23.312;2023-11-21T07:50:28;93465.22;;;11.54;47.32
20037;BME280;10179;42.640;23.312;2023-11-21T07:52:53;93332.03;;;10.74;47.36
20037;BME280;10179;42.640;23.312;2023-11-21T07:55:19;93471.22;;;11.66;47.17
20037;BME280;10179;42.640;23.312;2023-11-21T07:57:45;93458.59;;;11.52;47.31
20037;BME280;10179;42.640;23.312;2023-11-21T08:00:11;93440.84;;;11.30;46.97
20037;BME280;10179;42.640;23.312;2023-11-21T08:02:38;93397.22;;;11.17;47.32
20037;BME280;10179;42.640;23.312;2023-11-21T08:05:05;93468.13;;;11.69;47.73
20037;BME280;10179;42.640;23.312;2023-11-21T08:07:33;93435.91;;;11.62;47.52
20037;BME280;10179;42.640;23.312;2023-11-21T08:09:58;93434.63;;;11.65;47.25
20037;BME280;10179;42.640;23.312;2023-11-21T08:12:24;93316.88;;;10.93;47.01
20037;BME280;10179;42.640;23.312;2023-11-21T08:14:49;93404.72;;;11.54;47.06
20037;BME280;10179;42.640;23.312;2023-11-21T08:17:15;93483.44;;;12.01;47.41
20037;BME280;10179;42.640;23.312;2023-11-21T08:19:40;93463.03;;;12.08;47.13
20037;BME280;10179;42.640;23.312;2023-11-21T08:22:06;93461.94;;;12.04;46.86
20037;BME280;10179;42.640;23.312;2023-11-21T08:24:33;93468.78;;;12.05;47.08
20037;BME280;10179;42.640;23.312;2023-11-21T08:26:58;93448.03;;;11.92;47.12
20037;BME280;10179;42.640;23.312;2023-11-21T08:29:24;93477.91;;;12.14;47.47
20037;BME280;10179;42.640;23.312;2023-11-21T08:31:49;93472.22;;;12.23;47.28
20037;BME280;10179;42.640;23.312;2023-11-21T08:34:14;93394.16;;;11.83;47.32
20037;BME280;10179;42.640;23.312;2023-11-21T08:36:44;93380.84;;;11.73;47.56
20037;BME280;10179;42.640;23.312;2023-11-21T08:39:09;93464.66;;;12.43;47.41
20037;BME280;10179;42.640;23.312;2023-11-21T08:41:38;93436.94;;;12.40;47.50
20037;BME280;10179;42.640;23.312;2023-11-21T08:44:04;93266.69;;;11.40;47.08
20037;BME280;10179;42.640;23.312;2023-11-21T08:46:33;93439.56;;;12.57;46.90
20037;BME280;10179;42.640;23.312;2023-11-21T08:49:01;93464.09;;;12.80;46.76
20037;BME280;10179;42.640;23.312;2023-11-21T08:51:26;93457.88;;;12.86;46.62
20037;BME280;10179;42.640;23.312;2023-11-21T08:53:52;93467.47;;;12.92;46.31
20037;BME280;10179;42.640;23.312;2023-11-21T08:56:18;93438.38;;;12.87;46.44
20037;BME280;10179;42.640;23.312;2023-11-21T08:58:45;93238.19;;;11.65;46.17
20037;BME280;10179;42.640;23.312;2023-11-21T09:01:12;93357.69;;;12.42;46.32
20037;BME280;10179;42.640;23.312;2023-11-21T09:03:37;93416.63;;;12.75;46.70
20037;BME280;10179;42.640;23.312;2023-11-21T09:06:03;93426.88;;;12.93;46.74
20037;BME280;10179;42.640;23.312;2023-11-21T09:08:29;93416.81;;;12.90;46.73
20037;BME280;10179;42.640;23.312;2023-11-21T09:10:55;93423.13;;;12.89;46.27
20037;BME280;10179;42.640;23.312;2023-11-21T09:13:20;93415.72;;;12.86;45.96
20037;BME280;10179;42.640;23.312;2023-11-21T09:15:46;93365.81;;;12.57;46.01
20037;BME280;10179;42.640;23.312;2023-11-21T09:18:14;93406.56;;;12.94;46.14
20037;BME280;10179;42.640;23.312;2023-11-21T09:20:41;93327.31;;;12.56;45.89
20037;BME280;10179;42.640;23.312;2023-11-21T09:23:06;93393.25;;;13.05;45.20
20037;BME280;10179;42.640;23.312;2023-11-21T09:25:32;93380.03;;;13.00;45.34
20037;BME280;10179;42.640;23.312;2023-11-21T09:27:58;93377.56;;;13.16;45.20
20037;BME280;10179;42.640;23.312;2023-11-21T09:30:23;93323.69;;;12.84;45.03
20037;BME280;10179;42.640;23.312;2023-11-21T09:32:50;93342.63;;;13.03;45.10
20037;BME280;10179;42.640;23.312;2023-11-21T09:35:16;93348.47;;;13.27;45.13
20037;BME280;10179;42.640;23.312;2023-11-21T09:37:45;93346.63;;;13.28;45.08
20037;BME280;10179;42.640;23.312;2023-11-21T09:40:11;93295.56;;;12.90;45.06
20037;BME280;10179;42.640;23.312;2023-11-21T09:42:40;93350.66;;;13.35;44.99
20037;BME280;10179;42.640;23.312;2023-11-21T09:47:46;93341.47;;;13.43;44.17
20037;BME280;10179;42.640;23.312;2023-11-21T09:50:16;93257.69;;;12.96;44.31
20037;BME280;10179;42.640;23.312;2023-11-21T09:55:18;93268.44;;;13.17;45.06
20037;BME280;10179;42.640;23.312;2023-11-21T09:57:47;93287.72;;;13.49;44.27
20037;BME280;10179;42.640;23.312;2023-11-21T10:00:16;93304.81;;;13.74;44.30
20037;BME280;10179;42.640;23.312;2023-11-21T10:02:43;93223.75;;;13.32;44.22
20037;BME280;10179;42.640;23.312;2023-11-21T10:05:09;93295.19;;;13.95;44.07
20037;BME280;10179;42.640;23.312;2023-11-21T10:07:39;93297.34;;;14.03;43.62
20037;BME280;10179;42.640;23.312;2023-11-21T10:10:07;93268.94;;;13.78;43.45
20037;BME280;10179;42.640;23.312;2023-11-21T10:12:33;93255.19;;;13.76;43.79
20037;BME280;10179;42.640;23.312;2023-11-21T10:15:01;93267.94;;;13.89;43.61
20037;BME280;10179;42.640;23.312;2023-11-21T10:17:28;93289.25;;;14.15;43.52
20037;BME280;10179;42.640;23.312;2023-11-21T10:19:57;93190.25;;;13.70;43.59
20037;BME280;10179;42.640;23.312;2023-11-21T10:22:22;93248.63;;;14.26;43.33
20037;BME280;10179;42.640;23.312;2023-11-21T10:24:49;93252.41;;;14.40;42.59
20037;BME280;10179;42.640;23.312;2023-11-21T10:27:14;93266.50;;;14.61;42.42
20037;BME280;10179;42.640;23.312;2023-11-21T10:29:39;93254.38;;;14.60;41.34
20037;BME280;10179;42.640;23.312;2023-11-21T10:32:07;93277.13;;;14.71;41.78
20037;BME280;10179;42.640;23.312;2023-11-21T10:34:33;93272.63;;;14.72;41.76
20037;BME280;10179;42.640;23.312;2023-11-21T10:37:11;93280.06;;;14.80;41.47
20037;BME280;10179;42.640;23.312;2023-11-21T10:39:36;93194.28;;;14.45;41.60
20037;BME280;10179;42.640;23.312;2023-11-21T10:42:01;93258.44;;;15.09;41.22
20037;BME280;10179;42.640;23.312;2023-11-21T10:44:27;93262.16;;;15.23;40.54
20037;BME280;10179;42.640;23.312;2023-11-21T10:46:54;93258.75;;;15.27;40.45
20037;BME280;10179;42.640;23.312;2023-11-21T10:49:30;93236.50;;;15.13;40.38
20037;BME280;10179;42.640;23.312;2023-11-21T10:51:56;93237.81;;;15.26;40.33
20037;BME280;10179;42.640;23.312;2023-11-21T10:54:23;93229.91;;;15.26;40.22
20037;BME280;10179;42.640;23.312;2023-11-21T10:56:50;93251.59;;;15.43;40.05
20037;BME280;10179;42.640;23.312;2023-11-21T10:59:18;93230.44;;;15.38;39.77
20037;BME280;10179;42.640;23.312;2023-11-21T11:01:46;93234.66;;;15.39;39.60
20037;BME280;10179;42.640;23.312;2023-11-21T11:04:18;93244.72;;;15.37;39.42
20037;BME280;10179;42.640;23.312;2023-11-21T11:06:44;93242.59;;;15.24;39.51
20037;BME280;10179;42.640;23.312;2023-11-21T11:09:13;93216.66;;;15.00;39.67
20037;BME280;10179;42.640;23.312;2023-11-21T11:11:42;93181.69;;;14.73;39.62
20037;BME280;10179;42.640;23.312;2023-11-21T11:14:13;93235.69;;;15.08;39.85
20037;BME280;10179;42.640;23.312;2023-11-21T11:16:40;93228.28;;;14.99;39.83
20037;BME280;10179;42.640;23.312;2023-11-21T11:19:09;93148.56;;;14.40;39.78
20037;BME280;10179;42.640;23.312;2023-11-21T11:27:15;93185.44;;;14.92;40.03
20037;BME280;10179;42.640;23.312;2023-11-21T11:30:16;93193.91;;;14.99;40.28
20037;BME280;10179;42.640;23.312;2023-11-21T11:33:23;93195.75;;;15.04;40.24
20037;BME280;10179;42.640;23.312;2023-11-21T11:38:53;93189.16;;;15.07;39.98
20037;BME280;10179;42.640;23.312;2023-11-21T11:41:30;93144.16;;;14.91;39.88
20037;BME280;10179;42.640;23.312;2023-11-21T11:43:58;93142.59;;;14.80;39.98
20037;BME280;10179;42.640;23.312;2023-11-21T11:46:44;93206.09;;;15.21;40.60
20037;BME280;10179;42.640;23.312;2023-11-21T11:49:25;93179.06;;;14.98;40.71
20037;BME280;10179;42.640;23.312;2023-11-21T11:54:55;93195.25;;;15.07;41.08
20037;BME280;10179;42.640;23.312;2023-11-21T11:57:24;93178.31;;;15.03;41.23
20037;BME280;10179;42.640;23.312;2023-11-21T12:00:11;93193.91;;;15.15;41.46
20037;BME280;10179;42.640;23.312;2023-11-21T12:02:41;93199.19;;;14.99;41.33
20037;BME280;10179;42.640;23.312;2023-11-21T12:05:17;93177.50;;;14.82;41.72
20037;BME280;10179;42.640;23.312;2023-11-21T12:07:54;93167.91;;;14.55;42.45
20037;BME280;10179;42.640;23.312;2023-11-21T12:10:21;93124.75;;;14.35;42.19
20037;BME280;10179;42.640;23.312;2023-11-21T12:12:54;93188.03;;;14.72;42.51
20037;BME280;10179;42.640;23.312;2023-11-21T12:15:20;93126.09;;;14.32;42.66
20037;BME280;10179;42.640;23.312;2023-11-21T12:17:47;93219.75;;;14.77;42.57
20037;BME280;10179;42.640;23.312;2023-11-21T12:20:14;93123.41;;;14.17;43.00
20037;BME280;10179;42.640;23.312;2023-11-21T12:22:45;93203.91;;;14.77;43.34
20037;BME280;10179;42.640;23.312;2023-11-21T12:25:16;93170.59;;;14.61;43.25
20037;BME280;10179;42.640;23.312;2023-11-21T12:27:47;93174.19;;;14.49;43.45
20037;BME280;10179;42.640;23.312;2023-11-21T12:30:15;93178.66;;;14.39;43.98
20037;BME280;10179;42.640;23.312;2023-11-21T12:32:47;92994.22;;;13.17;44.37
20037;BME280;10179;42.640;23.312;2023-11-21T12:35:13;93205.09;;;14.39;44.39
20037;BME280;10179;42.640;23.312;2023-11-21T12:37:40;93220.66;;;14.35;44.95
20037;BME280;10179;42.640;23.312;2023-11-21T12:40:06;93208.78;;;14.38;45.22
20037;BME280;10179;42.640;23.312;2023-11-21T12:42:41;93194.28;;;14.45;44.71
20037;BME280;10179;42.640;23.312;2023-11-21T12:47:41;93127.09;;;14.16;44.15
20037;BME280;10179;42.640;23.312;2023-11-21T12:50:07;93194.88;;;14.63;43.94
20037;BME280;10179;42.640;23.312;2023-11-21T12:52:42;93176.94;;;14.65;44.01
20037;BME280;10179;42.640;23.312;2023-11-21T12:55:20;93172.94;;;14.62;43.79
20037;BME280;10179;42.640;23.312;2023-11-21T12:57:52;93139.81;;;14.34;43.79
20037;BME280;10179;42.640;23.312;2023-11-21T13:00:20;93173.97;;;14.56;43.72
20037;BME280;10179;42.640;23.312;2023-11-21T13:02:56;93146.44;;;14.42;43.60
20037;BME280;10179;42.640;23.312;2023-11-21T13:05:31;93119.72;;;14.23;43.80
20037;BME280;10179;42.640;23.312;2023-11-21T13:07:59;93129.22;;;14.24;44.04
20037;BME280;10179;42.640;23.312;2023-11-21T13:10:27;93143.28;;;14.40;44.24
20037;BME280;10179;42.640;23.312;2023-11-21T13:13:00;93160.25;;;14.54;44.28